OETF

Ta'if Regional Airport

Airport
ICAO code
OETF
Summary
ICAO Region
MID
ICAO Territory
Location

Taif,

Coordinates
21° 28' 49" N , 40° 33' 10" E
KCC
Metar
Observation
OETF 271500Z 34007KT 9999 SCT030 20/07 Q1020 NOSIG
Station
Taif
Date/Time
2023-01-27 15:00:00
Wind direction
340°
Wind speed
07 kts
Lowest cloud amount
scattered clouds
Temperature
20°C
Dew point
7°C
Humidity
42%
QNH
1020 hPa
Weather condition
n/a

Description

Ta'if Regional Airport is located 20 km northeast of Ta'if, Saudi Arabia.

Climatology

Hot Desert Climate (Köppen climate classification BWh) - Hot desert climates are typically found in the subtropics where there is unbroken sunshine for the whole year due to the stable descending air and high pressure, little or no precipitation. Maximum temperatures of 40°C to 45°C are not uncommon, particularly during the warmer months of the year. During colder periods of the year, night-time temperatures can drop to freezing or below due to the exceptional radiation loss under the clear skies. However, very rarely do temperatures drop far below freezing.

Runways

Designator Length Width Surface Rops
17/35 3350 45 ASP Yes/Yes
7/25 3735 45 ASP Yes/Yes

Airport map

Aerial View

SKYbrary Partners:

Safety knowledge contributed by: